Wausau, FL (32463)

9:42 AM CDT on October 30, 2014 (GMT -0500)
Silver Lake Road | Change Station
CLOSE
Current Station
Personal Weather Station
Location: Fountain, FL
Elevation: 178 ft
Nearby Weather Stations

Elev 178 ft 30.48 °N, 85.47 °W | Updated 11 seconds ago

Partly Cloudy
Partly Cloudy
66.2 °F
Feels Like 66.2 °F
N
3.6
Wind Variable Wind from North
Gusts 3.6 mph

Today
High -- | Low -- °F
--% Chance of Precip.
Yesterday
High -- | Low -- °F
Precip. -- in
6:55 AM 5:56 PM
Waxing Crescent, 44% visible
Pressure 29.95 in
Visibility 10.0 miles
Clouds Few 4100 ft
Dew Point 53 °F
Humidity 62%
Rainfall 0.00 in
Snow Depth Not available.
UV 2 out of 12
Pollen 3.90 out of 12
Air Quality Not available.
Flu Activity Not available.
METAR K1J0 301358Z AUTO 01012KT 10SM FEW041 17/09 A3008 RMK AO2 SLP142 T01720089 PNO $

More Conditions Fewer Conditions

Pressure 29.95 in
Visibility 10.0 miles
Clouds Few 4100 ft
Dew Point 53 °F
Humidity 62%
Rainfall 0.00 in
Snow Depth Not available.
UV 2 out of 12
Pollen 3.90 out of 12
Air Quality Not available.
Flu Activity Not available.
METAR K1J0 301358Z AUTO 01012KT 10SM FEW041 17/09 A3008 RMK AO2 SLP142 T01720089 PNO $

More Conditions Fewer Conditions

10-Day Weather Forecast

Almanac

Astronomy

Oct. 30, 2014 Rise Set
Actual Time
Civil Twilight
Nautical Twilight
Astronomical Twilight
Moon
Length of Visible Light
Length of Day
Tomorrow will be .
, % of the Moon is Illuminated

Today's Extremes

State Highs State Lows

Community

WunderPhotos

Upload Photos

1,766,379 photos uploaded!

WunderBlogs® & News

Nearby

Air Quality

  Air Quality AQ Index Pollutant
Not available.

Snow Depth

Station Depth Elevation

Earthquake Activity

City Distance Mag. Time & Date
Minimum magnitude displayed is 2.5.

Coastal Water Temperatures

Place Temperature

Nearby Weather Stations